createdAt,value
2023-04-30T00:01:45.645Z,25.90
2023-04-30T00:04:13.387Z,25.90
2023-04-30T00:06:41.565Z,25.90
2023-04-30T00:09:09.329Z,25.90
2023-04-30T00:11:37.005Z,25.90
2023-04-30T00:14:04.976Z,25.90
2023-04-30T00:16:32.675Z,25.90
2023-04-30T00:19:01.679Z,25.90
2023-04-30T00:21:29.320Z,25.90
2023-04-30T00:23:56.996Z,25.90
2023-04-30T00:26:24.757Z,25.90
2023-04-30T00:28:52.393Z,25.90
2023-04-30T00:31:20.033Z,25.90
2023-04-30T00:33:47.709Z,25.90
2023-04-30T00:36:16.700Z,25.90
2023-04-30T00:38:44.338Z,25.90
2023-04-30T00:41:12.168Z,25.80
2023-04-30T00:43:39.839Z,25.80
2023-04-30T00:46:07.554Z,25.90
2023-04-30T00:48:36.420Z,25.80
2023-04-30T00:51:05.533Z,25.80
2023-04-30T00:53:35.852Z,25.80
2023-04-30T00:56:03.696Z,25.80
2023-04-30T00:58:32.243Z,25.80
2023-04-30T01:01:00.136Z,25.80
2023-04-30T01:03:29.414Z,25.80
2023-04-30T01:05:57.203Z,25.80
2023-04-30T01:08:25.235Z,25.80
2023-04-30T01:11:02.478Z,25.80
2023-04-30T01:13:35.798Z,25.80
2023-04-30T01:16:12.869Z,25.80
2023-04-30T01:18:44.623Z,25.80
2023-04-30T01:21:13.368Z,25.80
2023-04-30T01:23:59.050Z,25.80
2023-04-30T01:26:46.524Z,25.80
2023-04-30T01:29:19.736Z,25.70
2023-04-30T01:31:47.546Z,25.70
2023-04-30T01:34:15.365Z,25.70
2023-04-30T01:36:54.508Z,25.70
2023-04-30T01:39:37.097Z,25.70
2023-04-30T01:42:12.183Z,25.70
2023-04-30T01:44:55.765Z,25.70
2023-04-30T01:47:34.941Z,25.70
2023-04-30T01:50:11.186Z,25.70
2023-04-30T01:52:43.319Z,25.70
2023-04-30T01:55:19.158Z,25.70
2023-04-30T01:57:56.677Z,25.70
2023-04-30T02:00:26.744Z,25.70
2023-04-30T02:02:54.649Z,25.70
2023-04-30T02:05:22.336Z,25.70
2023-04-30T02:07:52.229Z,25.70
2023-04-30T02:10:21.879Z,25.70
2023-04-30T02:12:49.708Z,25.70
2023-04-30T02:15:17.387Z,25.70
2023-04-30T02:17:46.518Z,25.70
2023-04-30T02:20:14.177Z,25.70
2023-04-30T02:22:42.016Z,25.70
2023-04-30T02:25:12.382Z,25.60
2023-04-30T02:27:40.153Z,25.60
2023-04-30T02:30:08.855Z,25.60
2023-04-30T02:32:36.740Z,25.60
2023-04-30T02:35:06.529Z,25.60
2023-04-30T02:37:34.191Z,25.60
2023-04-30T02:40:01.815Z,25.60
2023-04-30T02:42:29.455Z,25.60
2023-04-30T02:44:57.139Z,25.60
2023-04-30T02:47:24.781Z,25.60
2023-04-30T02:49:52.730Z,25.60
2023-04-30T02:52:22.513Z,25.60
2023-04-30T02:54:50.924Z,25.60
2023-04-30T02:57:18.573Z,25.60
2023-04-30T02:59:46.418Z,25.60
2023-04-30T03:02:14.186Z,25.60
2023-04-30T03:04:41.868Z,25.60
2023-04-30T03:07:09.503Z,25.60
2023-04-30T03:09:38.921Z,25.60
2023-04-30T03:12:06.838Z,25.60
2023-04-30T03:14:34.510Z,25.50
2023-04-30T03:17:02.156Z,25.50
2023-04-30T03:19:29.863Z,25.50
2023-04-30T03:21:57.709Z,25.50
2023-04-30T03:24:25.485Z,25.50
2023-04-30T03:26:54.515Z,25.50
2023-04-30T03:29:22.151Z,25.50
2023-04-30T03:31:49.794Z,25.50
2023-04-30T03:34:17.469Z,25.50
2023-04-30T03:36:45.137Z,25.50
2023-04-30T03:39:12.863Z,25.50
2023-04-30T03:41:40.619Z,25.50
2023-04-30T03:44:15.546Z,25.50
2023-04-30T03:46:43.815Z,25.50
2023-04-30T03:49:11.616Z,25.50
2023-04-30T03:51:41.778Z,25.50
2023-04-30T03:54:10.003Z,25.50
2023-04-30T03:56:38.606Z,25.50
2023-04-30T03:59:06.678Z,25.50
2023-04-30T04:01:35.787Z,25.50
2023-04-30T04:04:03.759Z,25.50
2023-04-30T04:06:31.719Z,25.50
2023-04-30T04:08:59.522Z,25.50
2023-04-30T04:11:27.245Z,25.50
2023-04-30T04:13:55.708Z,25.50
2023-04-30T04:16:23.381Z,25.50
2023-04-30T04:18:52.678Z,25.40
2023-04-30T04:21:20.432Z,25.40
2023-04-30T04:23:48.116Z,25.40
2023-04-30T04:26:16.551Z,25.40
2023-04-30T04:28:44.206Z,25.40
2023-04-30T04:31:12.858Z,25.40
2023-04-30T04:33:40.632Z,25.40
2023-04-30T04:36:09.772Z,25.40
2023-04-30T04:38:37.580Z,25.40
2023-04-30T04:41:05.280Z,25.40
2023-04-30T04:43:32.977Z,25.40
2023-04-30T04:46:00.654Z,25.40
2023-04-30T04:48:28.362Z,25.40
2023-04-30T04:50:56.056Z,25.40
2023-04-30T04:53:25.032Z,25.40
2023-04-30T04:55:52.689Z,25.40
2023-04-30T04:58:20.337Z,25.40
2023-04-30T05:00:48.020Z,25.40
2023-04-30T05:03:15.810Z,25.40
2023-04-30T05:05:44.303Z,25.40
2023-04-30T05:08:11.930Z,25.40
2023-04-30T05:10:40.938Z,25.40
2023-04-30T05:13:08.599Z,25.40
2023-04-30T05:15:36.449Z,25.40
2023-04-30T05:18:04.282Z,25.40
2023-04-30T05:20:31.982Z,25.40
2023-04-30T05:22:59.617Z,25.40
2023-04-30T05:25:27.387Z,25.40
2023-04-30T05:27:56.468Z,25.30
2023-04-30T05:30:24.138Z,25.30
2023-04-30T05:32:52.612Z,25.30
2023-04-30T05:35:20.761Z,25.30
2023-04-30T05:37:48.397Z,25.30
2023-04-30T05:40:16.094Z,25.30
2023-04-30T05:42:44.594Z,25.30
2023-04-30T05:45:15.941Z,25.30
2023-04-30T05:47:43.664Z,25.30
2023-04-30T05:50:11.627Z,25.30
2023-04-30T05:52:39.737Z,25.30
2023-04-30T05:55:08.671Z,25.30
2023-04-30T05:57:36.446Z,25.30
2023-04-30T06:00:06.579Z,25.30
2023-04-30T06:02:35.820Z,25.30
2023-04-30T06:05:03.758Z,25.30
2023-04-30T06:07:31.643Z,25.30
2023-04-30T06:09:59.330Z,25.30
2023-04-30T06:12:27.134Z,25.30
2023-04-30T06:14:54.863Z,25.30
2023-04-30T06:17:22.493Z,25.30
2023-04-30T06:19:51.522Z,25.30
2023-04-30T06:22:19.172Z,25.30
2023-04-30T06:24:46.834Z,25.30
2023-04-30T06:27:14.451Z,25.30
2023-04-30T06:29:42.096Z,25.40
2023-04-30T06:32:09.738Z,25.30
2023-04-30T06:34:37.697Z,25.30
2023-04-30T06:37:06.778Z,25.30
2023-04-30T06:39:34.465Z,25.40
2023-04-30T06:42:02.107Z,25.40
2023-04-30T06:44:29.743Z,25.40
2023-04-30T06:46:57.425Z,25.40
2023-04-30T06:49:25.072Z,25.40
2023-04-30T06:51:52.733Z,25.40
2023-04-30T06:54:22.810Z,25.40
2023-04-30T06:56:50.533Z,25.40
2023-04-30T06:59:18.168Z,25.40
2023-04-30T07:01:45.892Z,25.40
2023-04-30T07:04:13.551Z,25.40
2023-04-30T07:06:41.589Z,25.40
2023-04-30T07:09:09.576Z,25.40
2023-04-30T07:11:38.589Z,25.40
2023-04-30T07:14:06.211Z,25.40
2023-04-30T07:16:34.117Z,25.40
2023-04-30T07:19:01.783Z,25.40
2023-04-30T07:21:29.467Z,25.50
2023-04-30T07:23:57.110Z,25.50
2023-04-30T07:26:26.496Z,25.50
2023-04-30T07:28:55.541Z,25.50
2023-04-30T07:31:23.249Z,25.50
2023-04-30T07:33:51.348Z,25.50
2023-04-30T07:36:19.096Z,25.50
2023-04-30T07:38:46.845Z,25.50
2023-04-30T07:41:14.776Z,25.60
2023-04-30T07:43:42.785Z,25.60
2023-04-30T07:46:11.886Z,25.60
2023-04-30T07:48:39.535Z,25.60
2023-04-30T07:51:07.301Z,25.60
2023-04-30T07:53:34.954Z,25.60
2023-04-30T07:56:02.621Z,25.70
2023-04-30T07:58:30.338Z,25.70
2023-04-30T08:00:58.011Z,25.70
2023-04-30T08:03:27.168Z,25.70
2023-04-30T08:05:54.949Z,25.70
2023-04-30T08:08:22.721Z,25.80
2023-04-30T08:10:50.388Z,25.80
2023-04-30T08:13:18.066Z,25.80
2023-04-30T08:15:46.309Z,25.80
2023-04-30T08:18:14.109Z,25.90
2023-04-30T08:20:43.177Z,25.90
2023-04-30T08:23:10.802Z,25.90
2023-04-30T08:25:38.480Z,25.90
2023-04-30T08:28:08.043Z,25.90
2023-04-30T08:30:35.707Z,25.90
2023-04-30T08:33:03.409Z,26.00
2023-04-30T08:35:31.128Z,26.00
2023-04-30T08:38:00.145Z,26.00
2023-04-30T08:40:43.761Z,26.00
2023-04-30T08:43:17.169Z,26.00
2023-04-30T08:45:45.493Z,26.10
2023-04-30T08:48:15.198Z,26.10
2023-04-30T08:50:43.259Z,26.10
2023-04-30T08:53:15.751Z,26.10
2023-04-30T08:55:43.482Z,26.10
2023-04-30T08:58:11.364Z,26.20
2023-04-30T09:00:40.435Z,26.20
2023-04-30T09:03:09.145Z,26.20
2023-04-30T09:05:38.708Z,26.20
2023-04-30T09:08:07.938Z,26.20
2023-04-30T09:10:37.147Z,26.20
2023-04-30T09:13:06.034Z,26.30
2023-04-30T09:15:37.135Z,26.30
2023-04-30T09:18:13.234Z,26.30
2023-04-30T09:20:55.892Z,26.40
2023-04-30T09:23:23.758Z,26.50
2023-04-30T09:25:52.839Z,26.60
2023-04-30T09:28:23.794Z,26.70
2023-04-30T09:30:52.257Z,26.80
2023-04-30T09:33:20.392Z,26.90
2023-04-30T09:35:48.893Z,27.00
2023-04-30T09:38:28.019Z,27.10
2023-04-30T09:41:00.397Z,27.20
2023-04-30T09:43:28.401Z,27.40
2023-04-30T09:45:56.366Z,27.50
2023-04-30T09:48:25.231Z,27.60
2023-04-30T09:50:53.216Z,27.80
2023-04-30T09:53:21.663Z,27.90
2023-04-30T09:55:50.910Z,28.00
2023-04-30T09:58:20.916Z,28.10
2023-04-30T10:00:49.612Z,28.20
2023-04-30T10:03:17.468Z,28.30
2023-04-30T10:05:48.319Z,28.40
2023-04-30T10:08:22.725Z,28.50
2023-04-30T10:10:55.141Z,28.50
2023-04-30T10:13:27.012Z,28.60
2023-04-30T10:16:00.521Z,28.60
2023-04-30T10:18:32.384Z,28.70
2023-04-30T10:21:04.059Z,28.70
2023-04-30T10:23:31.918Z,28.70
2023-04-30T10:26:00.143Z,28.70
2023-04-30T10:28:30.998Z,28.70
2023-04-30T10:30:59.579Z,28.80
2023-04-30T10:33:35.688Z,28.80
2023-04-30T10:36:08.981Z,28.80
2023-04-30T10:38:38.607Z,28.80
2023-04-30T10:41:09.557Z,28.80
2023-04-30T10:43:39.134Z,28.80
2023-04-30T10:46:06.952Z,28.80
2023-04-30T10:48:36.044Z,28.80
2023-04-30T10:51:03.775Z,28.80
2023-04-30T10:53:32.824Z,28.70
2023-04-30T10:56:06.643Z,28.70
2023-04-30T10:58:35.610Z,28.70
2023-04-30T11:01:08.486Z,28.70
2023-04-30T11:03:37.334Z,28.70
2023-04-30T11:06:13.451Z,28.70
2023-04-30T11:08:44.718Z,28.70
2023-04-30T11:11:14.970Z,28.70
2023-04-30T11:13:45.447Z,28.70
2023-04-30T11:16:16.769Z,28.70
2023-04-30T11:18:46.178Z,28.70
2023-04-30T11:21:14.266Z,28.70
2023-04-30T11:23:44.091Z,28.70
2023-04-30T11:26:12.149Z,28.70
2023-04-30T11:28:39.857Z,28.70
2023-04-30T11:31:16.544Z,28.60
2023-04-30T11:33:44.255Z,28.70
2023-04-30T11:36:11.938Z,28.60
2023-04-30T11:38:39.977Z,28.70
2023-04-30T11:41:07.782Z,28.60
2023-04-30T11:43:36.398Z,28.60
2023-04-30T11:46:09.166Z,28.60
2023-04-30T11:48:39.387Z,28.60
2023-04-30T11:51:15.749Z,28.60
2023-04-30T11:53:43.628Z,28.60
2023-04-30T11:56:11.271Z,28.60
2023-04-30T11:58:40.248Z,28.60
2023-04-30T12:01:09.590Z,28.60
2023-04-30T12:03:44.247Z,28.60
2023-04-30T12:06:13.036Z,28.60
2023-04-30T12:08:43.053Z,28.60
2023-04-30T12:11:25.328Z,28.60
2023-04-30T12:13:54.413Z,28.60
2023-04-30T12:16:22.176Z,28.60
2023-04-30T12:18:52.858Z,28.60
2023-04-30T12:21:22.737Z,28.60
2023-04-30T12:23:50.658Z,28.60
2023-04-30T12:26:18.812Z,28.60
2023-04-30T12:28:48.482Z,28.60
2023-04-30T12:31:18.136Z,28.60
2023-04-30T12:33:49.025Z,28.60
2023-04-30T12:36:18.079Z,28.60
2023-04-30T12:38:45.751Z,28.60
2023-04-30T12:41:15.310Z,28.50
2023-04-30T12:43:43.004Z,28.50
2023-04-30T12:46:10.765Z,28.50
2023-04-30T12:48:45.399Z,28.50
2023-04-30T12:51:13.180Z,28.50
2023-04-30T12:53:47.346Z,28.50
2023-04-30T12:56:16.954Z,28.50
2023-04-30T12:58:47.574Z,28.50
2023-04-30T13:01:19.320Z,28.50
2023-04-30T13:03:47.476Z,28.50
2023-04-30T13:06:15.463Z,28.50
2023-04-30T13:08:57.124Z,28.50
2023-04-30T13:11:27.686Z,28.50
2023-04-30T13:13:56.562Z,28.40
2023-04-30T13:16:25.433Z,28.40
2023-04-30T13:18:53.733Z,28.40
2023-04-30T13:21:21.677Z,28.40
2023-04-30T13:23:53.754Z,28.40
2023-04-30T13:26:23.220Z,28.40
2023-04-30T13:28:52.574Z,28.40
2023-04-30T13:31:20.510Z,28.40
2023-04-30T13:33:48.301Z,28.40
2023-04-30T13:36:16.302Z,28.40
2023-04-30T13:38:44.540Z,28.40
2023-04-30T13:41:12.323Z,28.40
2023-04-30T13:43:42.671Z,28.40
2023-04-30T13:46:12.326Z,28.40
2023-04-30T13:48:40.024Z,28.30
2023-04-30T13:51:08.454Z,28.30
2023-04-30T13:53:37.046Z,28.30
2023-04-30T13:56:05.124Z,28.30
2023-04-30T13:58:33.449Z,28.30
2023-04-30T14:01:01.228Z,28.30
2023-04-30T14:03:30.548Z,28.30
2023-04-30T14:05:58.574Z,28.30
2023-04-30T14:08:26.269Z,28.30
2023-04-30T14:10:53.936Z,28.30
2023-04-30T14:13:21.587Z,28.30
2023-04-30T14:15:52.055Z,28.30
2023-04-30T14:18:22.794Z,28.30
2023-04-30T14:20:52.032Z,28.30
2023-04-30T14:23:19.693Z,28.30
2023-04-30T14:25:47.631Z,28.30
2023-04-30T14:28:15.322Z,28.30
2023-04-30T14:30:43.688Z,28.30
2023-04-30T14:33:13.006Z,28.30
2023-04-30T14:35:41.602Z,28.30
2023-04-30T14:38:10.768Z,28.30
2023-04-30T14:40:38.468Z,28.30
2023-04-30T14:43:06.240Z,28.20
2023-04-30T14:45:34.311Z,28.20
2023-04-30T14:48:05.156Z,28.20
2023-04-30T14:50:33.420Z,28.20
2023-04-30T14:53:01.093Z,28.20
2023-04-30T14:55:30.290Z,28.20
2023-04-30T14:57:58.170Z,28.20
2023-04-30T15:00:26.006Z,28.20
2023-04-30T15:02:53.780Z,28.20
2023-04-30T15:05:22.178Z,28.20
2023-04-30T15:07:49.872Z,28.20
2023-04-30T15:10:18.593Z,28.20
2023-04-30T15:12:47.681Z,28.20
2023-04-30T15:15:17.383Z,28.20
2023-04-30T15:17:46.414Z,28.20
2023-04-30T15:20:14.261Z,28.20
2023-04-30T15:22:42.262Z,28.20
2023-04-30T15:25:10.481Z,28.20
2023-04-30T15:27:39.034Z,28.10
2023-04-30T15:30:09.647Z,28.10
2023-04-30T15:32:37.487Z,28.10
2023-04-30T15:35:05.801Z,28.10
2023-04-30T15:37:34.532Z,28.10
2023-04-30T15:40:02.261Z,28.10
2023-04-30T15:42:30.032Z,28.10
2023-04-30T15:44:57.802Z,28.10
2023-04-30T15:47:26.917Z,28.10
2023-04-30T15:49:54.913Z,28.10
2023-04-30T15:52:22.814Z,28.10
2023-04-30T15:54:51.137Z,28.10
2023-04-30T15:57:19.144Z,28.10
2023-04-30T15:59:46.819Z,28.10
2023-04-30T16:02:14.509Z,28.10
2023-04-30T16:04:44.520Z,28.10
2023-04-30T16:07:12.781Z,28.10
2023-04-30T16:09:41.640Z,28.10
2023-04-30T16:12:09.297Z,28.10
2023-04-30T16:14:36.930Z,28.00
2023-04-30T16:17:04.727Z,28.10
2023-04-30T16:19:33.091Z,28.00
2023-04-30T16:22:02.260Z,28.00
2023-04-30T16:24:29.936Z,28.00
2023-04-30T16:26:57.627Z,28.00
2023-04-30T16:29:25.912Z,28.00
2023-04-30T16:31:53.822Z,28.00
2023-04-30T16:34:21.613Z,28.00
2023-04-30T16:36:49.423Z,28.00
2023-04-30T16:39:18.592Z,28.00
2023-04-30T16:41:46.265Z,28.00
2023-04-30T16:44:13.915Z,28.00
2023-04-30T16:46:41.594Z,28.00
2023-04-30T16:49:09.272Z,28.00
2023-04-30T16:51:36.946Z,28.00
2023-04-30T16:54:04.697Z,28.00
2023-04-30T16:56:33.769Z,28.00
2023-04-30T16:59:01.411Z,28.00
2023-04-30T17:01:29.265Z,28.00
2023-04-30T17:03:57.009Z,28.00
2023-04-30T17:06:24.990Z,28.00
2023-04-30T17:08:53.277Z,28.00
2023-04-30T17:11:22.371Z,27.90
2023-04-30T17:13:53.574Z,27.90
2023-04-30T17:16:21.313Z,27.90
2023-04-30T17:18:49.083Z,27.90
2023-04-30T17:21:17.035Z,27.90
2023-04-30T17:23:44.774Z,27.90
2023-04-30T17:26:12.459Z,27.90
2023-04-30T17:28:40.101Z,27.90
2023-04-30T17:31:09.668Z,27.90
2023-04-30T17:33:37.812Z,27.90
2023-04-30T17:36:05.997Z,27.90
2023-04-30T17:38:33.684Z,27.90
2023-04-30T17:41:01.485Z,27.90
2023-04-30T17:43:30.029Z,27.90
2023-04-30T17:45:57.708Z,27.90
2023-04-30T17:48:27.316Z,27.90
2023-04-30T17:50:55.392Z,27.90
2023-04-30T17:53:23.079Z,27.90
2023-04-30T17:55:50.743Z,27.80
2023-04-30T17:58:18.404Z,27.80
2023-04-30T18:00:46.321Z,27.80
2023-04-30T18:03:14.710Z,27.80
2023-04-30T18:05:45.097Z,27.80
2023-04-30T18:08:12.792Z,27.80
2023-04-30T18:10:40.449Z,27.80
2023-04-30T18:13:08.208Z,27.80
2023-04-30T18:15:36.031Z,27.80
2023-04-30T18:18:03.718Z,27.70
2023-04-30T18:20:31.500Z,27.70
2023-04-30T18:23:00.512Z,27.70
2023-04-30T18:25:28.510Z,27.70
2023-04-30T18:27:56.202Z,27.70
2023-04-30T18:30:23.961Z,27.70
2023-04-30T18:32:51.731Z,27.70
2023-04-30T18:35:19.546Z,27.70
2023-04-30T18:37:47.273Z,27.60
2023-04-30T18:40:16.569Z,27.60
2023-04-30T18:42:44.742Z,27.60
2023-04-30T18:45:12.749Z,27.60
2023-04-30T18:47:40.511Z,27.60
2023-04-30T18:50:13.320Z,27.60
2023-04-30T18:52:41.500Z,27.60
2023-04-30T18:55:11.649Z,27.60
2023-04-30T18:57:42.399Z,27.50
2023-04-30T19:00:12.218Z,27.50
2023-04-30T19:02:40.494Z,27.50
2023-04-30T19:05:08.566Z,27.50
2023-04-30T19:07:36.255Z,27.50
2023-04-30T19:10:04.855Z,27.50
2023-04-30T19:12:32.510Z,27.50
2023-04-30T19:15:01.918Z,27.40
2023-04-30T19:17:29.621Z,27.40
2023-04-30T19:19:58.800Z,27.40
2023-04-30T19:22:26.743Z,27.40
2023-04-30T19:24:54.375Z,27.40
2023-04-30T19:27:22.028Z,27.40
2023-04-30T19:29:49.675Z,27.40
2023-04-30T19:32:18.844Z,27.40
2023-04-30T19:34:46.896Z,27.30
2023-04-30T19:37:14.799Z,27.30
2023-04-30T19:39:42.486Z,27.30
2023-04-30T19:42:10.183Z,27.30
2023-04-30T19:44:37.942Z,27.30
2023-04-30T19:47:05.861Z,27.30
2023-04-30T19:49:36.055Z,27.30
2023-04-30T19:52:03.683Z,27.30
2023-04-30T19:54:31.353Z,27.30
2023-04-30T19:57:02.988Z,27.20
2023-04-30T19:59:31.548Z,27.20
2023-04-30T20:02:00.050Z,27.20
2023-04-30T20:04:28.742Z,27.20
2023-04-30T20:06:58.375Z,27.20
2023-04-30T20:09:26.389Z,27.20
2023-04-30T20:11:54.965Z,27.20
2023-04-30T20:14:23.921Z,27.20
2023-04-30T20:16:54.239Z,27.20
2023-04-30T20:19:22.990Z,27.20
2023-04-30T20:21:51.053Z,27.20
2023-04-30T20:24:21.622Z,27.10
2023-04-30T20:26:49.314Z,27.10
2023-04-30T20:29:18.532Z,27.10
2023-04-30T20:31:46.537Z,27.10
2023-04-30T20:34:14.255Z,27.10
2023-04-30T20:36:41.961Z,27.10
2023-04-30T20:39:09.737Z,27.10
2023-04-30T20:41:39.333Z,27.10
2023-04-30T20:44:06.998Z,27.10
2023-04-30T20:46:34.767Z,27.10
2023-04-30T20:49:04.539Z,27.10
2023-04-30T20:51:32.696Z,27.10
2023-04-30T20:54:00.433Z,27.10
2023-04-30T20:56:28.327Z,27.10
2023-04-30T20:58:57.387Z,27.10
2023-04-30T21:01:25.060Z,27.10
2023-04-30T21:03:52.816Z,27.10
2023-04-30T21:06:20.566Z,27.10
2023-04-30T21:08:48.909Z,27.10
2023-04-30T21:11:16.583Z,27.10
2023-04-30T21:13:44.276Z,27.10
2023-04-30T21:16:13.976Z,27.10
2023-04-30T21:18:41.697Z,27.10
2023-04-30T21:21:10.634Z,27.10
2023-04-30T21:23:42.646Z,27.10
2023-04-30T21:26:13.794Z,27.10
2023-04-30T21:28:45.914Z,27.10
2023-04-30T21:31:20.152Z,27.10
2023-04-30T21:33:48.168Z,27.10
2023-04-30T21:36:16.600Z,27.10
2023-04-30T21:38:44.253Z,27.10
2023-04-30T21:41:14.746Z,27.10
2023-04-30T21:43:42.718Z,27.10
2023-04-30T21:46:10.945Z,27.10
2023-04-30T21:48:40.513Z,27.10
2023-04-30T21:51:12.308Z,27.10
2023-04-30T21:53:39.951Z,27.10
2023-04-30T21:56:08.378Z,27.10
2023-04-30T21:58:36.499Z,27.10
2023-04-30T22:01:05.231Z,27.10
2023-04-30T22:03:33.204Z,27.10
2023-04-30T22:06:02.469Z,27.10
2023-04-30T22:08:30.559Z,27.10
2023-04-30T22:10:59.058Z,27.10
2023-04-30T22:13:27.014Z,27.10
2023-04-30T22:15:55.179Z,27.10
2023-04-30T22:18:23.643Z,27.10
2023-04-30T22:20:52.207Z,27.10
2023-04-30T22:23:21.708Z,27.10
2023-04-30T22:25:49.580Z,27.10
2023-04-30T22:28:19.168Z,27.10
2023-04-30T22:30:46.883Z,27.10
2023-04-30T22:33:14.641Z,27.10
2023-04-30T22:35:42.351Z,27.10
2023-04-30T22:38:10.989Z,27.10
2023-04-30T22:40:40.432Z,27.10
2023-04-30T22:43:08.263Z,27.10
2023-04-30T22:45:40.221Z,27.10
2023-04-30T22:48:09.663Z,27.10
2023-04-30T22:50:38.020Z,27.10
2023-04-30T22:53:05.806Z,27.10
2023-04-30T22:55:36.010Z,27.00
2023-04-30T22:58:05.029Z,27.00
2023-04-30T23:00:32.939Z,27.00
2023-04-30T23:03:00.837Z,27.00
2023-04-30T23:05:28.502Z,27.00
2023-04-30T23:07:56.288Z,27.00
2023-04-30T23:10:23.942Z,27.00
2023-04-30T23:12:55.311Z,27.00
2023-04-30T23:15:24.476Z,27.00
2023-04-30T23:17:52.194Z,27.00
2023-04-30T23:20:19.876Z,27.00
2023-04-30T23:22:47.643Z,27.00
2023-04-30T23:25:15.304Z,27.00
2023-04-30T23:27:44.073Z,27.00
2023-04-30T23:30:12.257Z,26.90
2023-04-30T23:32:41.655Z,26.90
2023-04-30T23:35:09.990Z,26.90
2023-04-30T23:37:37.706Z,26.90
2023-04-30T23:40:07.462Z,26.90
2023-04-30T23:42:35.663Z,26.90
2023-04-30T23:45:03.800Z,26.90
2023-04-30T23:47:31.630Z,26.90
2023-04-30T23:50:00.784Z,26.90
2023-04-30T23:52:28.428Z,26.90
2023-04-30T23:54:56.857Z,26.90
2023-04-30T23:57:25.867Z,26.90
2023-04-30T23:59:53.476Z,26.90
